createdAt,value
2017-07-25T00:00:11.736Z,2.80
2017-07-25T00:02:38.784Z,2.80
2017-07-25T00:05:05.939Z,2.87
2017-07-25T00:07:33.388Z,2.80
2017-07-25T00:09:59.815Z,2.63
2017-07-25T00:12:26.202Z,2.17
2017-07-25T00:14:52.639Z,2.40
2017-07-25T00:17:19.052Z,2.83
2017-07-25T00:19:45.465Z,2.77
2017-07-25T00:22:12.598Z,2.97
2017-07-25T00:24:39.018Z,3.17
2017-07-25T00:27:05.421Z,3.10
2017-07-25T00:29:31.833Z,3.07
2017-07-25T00:31:58.243Z,3.73
2017-07-25T00:34:25.386Z,3.07
2017-07-25T00:36:52.515Z,3.10
2017-07-25T00:39:18.944Z,3.03
2017-07-25T00:41:45.352Z,3.30
2017-07-25T00:44:11.765Z,3.63
2017-07-25T00:46:38.207Z,3.60
2017-07-25T00:49:04.616Z,3.60
2017-07-25T00:51:31.060Z,3.70
2017-07-25T00:53:57.465Z,4.00
2017-07-25T00:56:23.896Z,4.23
2017-07-25T00:58:50.326Z,4.20
2017-07-25T01:01:17.464Z,4.20
2017-07-25T01:03:43.868Z,3.80
2017-07-25T01:06:10.281Z,3.80
2017-07-25T01:08:36.670Z,4.30
2017-07-25T01:11:03.103Z,4.20
2017-07-25T01:13:30.246Z,4.20
2017-07-25T01:15:56.640Z,5.07
2017-07-25T01:18:23.098Z,4.47
2017-07-25T01:20:49.533Z,4.57
2017-07-25T01:23:15.930Z,4.87
2017-07-25T01:25:42.351Z,4.50
2017-07-25T01:28:08.746Z,4.50
2017-07-25T01:30:35.147Z,5.00
2017-07-25T01:33:01.576Z,4.77
2017-07-25T01:35:28.009Z,4.50
2017-07-25T01:37:55.004Z,5.20
2017-07-25T01:40:22.196Z,5.33
2017-07-25T01:42:48.613Z,6.10
2017-07-25T01:45:15.013Z,5.50
2017-07-25T01:47:41.436Z,5.07
2017-07-25T01:50:07.920Z,5.40
2017-07-25T01:52:34.342Z,5.67
2017-07-25T01:55:01.048Z,5.90
2017-07-25T01:57:27.544Z,5.37
2017-07-25T01:59:53.961Z,5.10
2017-07-25T02:02:20.426Z,4.90
2017-07-25T02:04:46.884Z,4.70
2017-07-25T02:07:13.266Z,4.47
2017-07-25T02:09:39.665Z,4.97
2017-07-25T02:12:06.833Z,4.10
2017-07-25T02:14:33.250Z,4.27
2017-07-25T02:16:59.673Z,4.53
2017-07-25T02:19:26.850Z,4.37
2017-07-25T02:21:53.241Z,3.53
2017-07-25T02:24:19.655Z,3.60
2017-07-25T02:26:46.039Z,4.20
2017-07-25T02:29:12.441Z,3.33
2017-07-25T02:31:38.821Z,3.60
2017-07-25T02:34:05.242Z,3.27
2017-07-25T02:36:31.668Z,3.50
2017-07-25T02:38:58.095Z,2.80
2017-07-25T02:41:25.247Z,3.43
2017-07-25T02:43:51.628Z,3.80
2017-07-25T02:46:18.031Z,2.97
2017-07-25T02:48:44.459Z,3.93
2017-07-25T02:51:10.881Z,3.17
2017-07-25T02:53:37.313Z,3.63
2017-07-25T02:56:03.725Z,4.00
2017-07-25T02:58:30.868Z,3.30
2017-07-25T03:00:57.268Z,4.23
2017-07-25T03:03:23.707Z,3.60
2017-07-25T03:05:50.130Z,3.83
2017-07-25T03:08:16.536Z,4.67
2017-07-25T03:10:42.942Z,4.30
2017-07-25T03:13:10.128Z,4.83
2017-07-25T03:15:36.550Z,4.50
2017-07-25T03:18:02.933Z,4.60
2017-07-25T03:20:29.346Z,4.83
2017-07-25T03:23:20.512Z,4.40
2017-07-25T03:25:46.904Z,4.10
2017-07-25T03:28:13.314Z,4.63
2017-07-25T03:30:39.734Z,4.40
2017-07-25T03:33:06.144Z,4.90
2017-07-25T03:35:32.524Z,4.33
2017-07-25T03:37:58.938Z,4.50
2017-07-25T03:40:25.353Z,5.23
2017-07-25T03:42:51.770Z,4.40
2017-07-25T03:45:18.924Z,4.20
2017-07-25T03:47:45.363Z,4.33
2017-07-25T03:50:11.804Z,4.07
2017-07-25T03:52:38.216Z,4.23
2017-07-25T03:55:04.676Z,3.90
2017-07-25T03:57:31.084Z,3.83
2017-07-25T03:59:57.484Z,3.40
2017-07-25T04:02:23.968Z,3.67
2017-07-25T04:04:50.435Z,3.50
2017-07-25T04:07:16.845Z,4.20
2017-07-25T04:09:43.229Z,3.50
2017-07-25T04:12:09.623Z,2.90
2017-07-25T04:14:36.039Z,3.10
2017-07-25T04:17:02.465Z,3.07
2017-07-25T04:19:28.874Z,3.80
2017-07-25T04:21:56.041Z,3.00
2017-07-25T04:24:22.441Z,3.30
2017-07-25T04:26:48.842Z,2.93
2017-07-25T04:29:15.270Z,2.87
2017-07-25T04:31:41.696Z,3.07
2017-07-25T04:34:08.108Z,2.63
2017-07-25T04:36:34.506Z,2.90
2017-07-25T04:39:01.656Z,3.67
2017-07-25T04:41:28.071Z,2.83
2017-07-25T04:43:54.488Z,3.17
2017-07-25T04:46:20.869Z,2.70
2017-07-25T04:48:48.000Z,2.93
2017-07-25T04:51:14.832Z,3.20
2017-07-25T04:53:41.286Z,2.90
2017-07-25T04:56:08.473Z,2.73
2017-07-25T04:58:34.873Z,3.07
2017-07-25T05:01:01.283Z,2.63
2017-07-25T05:03:27.761Z,2.67
2017-07-25T05:05:54.162Z,2.97
2017-07-25T05:08:20.638Z,3.00
2017-07-25T05:10:47.058Z,2.97
2017-07-25T05:13:13.476Z,3.10
2017-07-25T05:15:40.630Z,2.63
2017-07-25T05:18:07.032Z,2.93
2017-07-25T05:20:33.507Z,3.43
2017-07-25T05:22:59.954Z,2.90
2017-07-25T05:25:26.429Z,2.60
2017-07-25T05:27:52.850Z,2.63
2017-07-25T05:30:19.269Z,3.27
2017-07-25T05:32:45.697Z,3.47
2017-07-25T05:35:12.128Z,2.73
2017-07-25T05:37:38.534Z,2.90
2017-07-25T05:40:04.988Z,3.10
2017-07-25T05:42:31.374Z,3.00
2017-07-25T05:44:58.571Z,2.97
2017-07-25T05:47:24.988Z,3.30
2017-07-25T05:49:51.387Z,2.50
2017-07-25T05:52:18.536Z,3.10
2017-07-25T05:54:44.952Z,3.30
2017-07-25T05:57:11.378Z,3.77
2017-07-25T05:59:37.792Z,3.10
2017-07-25T06:02:04.212Z,3.57
2017-07-25T06:04:30.635Z,3.23
2017-07-25T06:06:57.049Z,3.07
2017-07-25T06:09:24.199Z,3.20
2017-07-25T06:11:52.646Z,3.30
2017-07-25T06:14:19.050Z,3.27
2017-07-25T06:16:45.460Z,2.70
2017-07-25T06:19:12.766Z,3.00
2017-07-25T06:21:39.178Z,3.40
2017-07-25T06:24:05.618Z,2.97
2017-07-25T06:28:53.203Z,2.77
2017-07-25T06:31:20.357Z,2.93
2017-07-25T06:33:47.500Z,2.43
2017-07-25T06:36:14.660Z,2.90
2017-07-25T06:38:41.829Z,2.80
2017-07-25T06:41:08.267Z,3.33
2017-07-25T06:43:34.669Z,2.10
2017-07-25T06:46:01.122Z,2.57
2017-07-25T06:48:27.560Z,2.27
2017-07-25T06:50:53.963Z,2.23
2017-07-25T06:53:21.115Z,2.43
2017-07-25T06:55:48.271Z,2.03
2017-07-25T06:58:14.734Z,2.33
2017-07-25T07:00:41.118Z,1.73
2017-07-25T07:03:08.275Z,2.70
2017-07-25T07:05:35.449Z,1.77
2017-07-25T07:08:01.854Z,1.80
2017-07-25T07:10:28.989Z,1.83
2017-07-25T07:12:55.392Z,2.30
2017-07-25T07:15:21.833Z,2.00
2017-07-25T07:17:49.817Z,2.43
2017-07-25T07:20:16.207Z,2.20
2017-07-25T07:22:42.645Z,1.77
2017-07-25T07:25:09.059Z,1.63
2017-07-25T07:27:35.502Z,2.07
2017-07-25T07:30:01.995Z,2.20
2017-07-25T07:32:28.411Z,2.00
2017-07-25T07:34:54.851Z,2.20
2017-07-25T07:37:21.269Z,2.07
2017-07-25T07:39:48.482Z,2.00
2017-07-25T07:42:14.911Z,2.30
2017-07-25T07:44:41.327Z,2.13
2017-07-25T07:47:08.486Z,2.00
2017-07-25T07:49:34.904Z,1.93
2017-07-25T07:52:02.752Z,1.63
2017-07-25T07:54:29.220Z,1.57
2017-07-25T07:56:55.702Z,1.83
2017-07-25T07:59:22.183Z,1.40
2017-07-25T08:01:48.706Z,1.27
2017-07-25T08:04:15.142Z,1.83
2017-07-25T08:06:42.288Z,1.40
2017-07-25T08:09:08.748Z,1.50
2017-07-25T08:11:35.167Z,1.43
2017-07-25T08:14:02.342Z,1.70
2017-07-25T08:16:28.772Z,1.43
2017-07-25T08:18:55.161Z,1.30
2017-07-25T08:21:21.575Z,1.00
2017-07-25T08:23:48.003Z,1.03
2017-07-25T08:26:14.550Z,1.30
2017-07-25T08:28:41.312Z,1.17
2017-07-25T08:31:08.462Z,1.40
2017-07-25T08:33:35.651Z,1.20
2017-07-25T08:36:02.129Z,1.50
2017-07-25T08:38:28.583Z,1.33
2017-07-25T08:40:55.767Z,1.50
2017-07-25T08:43:22.152Z,1.40
2017-07-25T08:45:48.558Z,1.47
2017-07-25T08:48:14.985Z,1.10
2017-07-25T08:50:41.373Z,1.40
2017-07-25T08:53:08.512Z,1.00
2017-07-25T08:55:35.704Z,1.33
2017-07-25T08:58:02.127Z,1.10
2017-07-25T09:00:28.595Z,1.50
2017-07-25T09:02:55.009Z,1.13
2017-07-25T09:05:21.443Z,1.50
2017-07-25T09:07:47.856Z,1.30
2017-07-25T09:10:14.681Z,1.60
2017-07-25T09:12:41.864Z,1.57
2017-07-25T09:15:08.282Z,1.90
2017-07-25T09:17:34.713Z,1.60
2017-07-25T09:20:01.153Z,2.10
2017-07-25T09:22:27.556Z,1.70
2017-07-25T09:24:54.698Z,1.60
2017-07-25T09:27:21.155Z,1.77
2017-07-25T09:29:47.559Z,1.67
2017-07-25T09:32:13.997Z,1.70
2017-07-25T09:34:41.182Z,1.80
2017-07-25T09:37:07.591Z,1.80
2017-07-25T09:39:34.000Z,1.80
2017-07-25T09:42:00.432Z,1.90
2017-07-25T09:44:26.828Z,1.60
2017-07-25T09:46:53.252Z,1.53
2017-07-25T09:49:19.672Z,2.00
2017-07-25T09:51:46.075Z,1.80
2017-07-25T09:54:13.244Z,1.90
2017-07-25T09:56:39.648Z,1.70
2017-07-25T09:59:06.076Z,1.87
2017-07-25T10:01:32.499Z,1.80
2017-07-25T10:03:58.949Z,2.10
2017-07-25T10:06:25.338Z,1.97
2017-07-25T10:08:51.742Z,1.43
2017-07-25T10:11:18.149Z,1.90
2017-07-25T10:13:44.654Z,1.80
2017-07-25T10:16:11.110Z,2.30
2017-07-25T10:18:37.531Z,1.83
2017-07-25T10:21:03.961Z,1.87
2017-07-25T10:23:30.440Z,2.27
2017-07-25T10:25:56.882Z,2.33
2017-07-25T10:28:23.313Z,1.93
2017-07-25T10:30:49.736Z,2.30
2017-07-25T10:33:16.969Z,2.73
2017-07-25T10:35:44.468Z,2.03
2017-07-25T10:38:10.870Z,1.90
2017-07-25T10:40:38.017Z,2.57
2017-07-25T10:43:04.419Z,2.30
2017-07-25T10:45:30.808Z,2.30
2017-07-25T10:47:57.230Z,2.60
2017-07-25T10:50:23.683Z,2.47
2017-07-25T10:52:50.102Z,3.07
2017-07-25T10:55:16.550Z,2.60
2017-07-25T10:57:42.990Z,3.07
2017-07-25T11:00:09.451Z,2.20
2017-07-25T11:02:35.854Z,2.97
2017-07-25T11:05:02.293Z,3.13
2017-07-25T11:07:28.710Z,4.30
2017-07-25T11:09:55.112Z,3.30
2017-07-25T11:12:22.292Z,3.80
2017-07-25T11:14:48.700Z,3.13
2017-07-25T11:17:15.861Z,3.63
2017-07-25T11:19:42.995Z,3.63
2017-07-25T11:22:10.161Z,3.60
2017-07-25T11:24:37.395Z,3.77
2017-07-25T11:27:04.587Z,3.80
2017-07-25T11:29:30.976Z,4.20
2017-07-25T11:31:58.124Z,3.33
2017-07-25T11:34:24.527Z,3.30
2017-07-25T11:36:50.993Z,2.80
2017-07-25T11:39:17.422Z,2.80
2017-07-25T11:41:43.830Z,3.00
2017-07-25T11:44:10.230Z,2.80
2017-07-25T11:46:36.629Z,3.30
2017-07-25T11:49:03.831Z,2.60
2017-07-25T11:51:30.244Z,2.57
2017-07-25T11:53:56.643Z,2.67
2017-07-25T11:56:23.045Z,2.30
2017-07-25T11:58:49.509Z,2.20
2017-07-25T12:01:15.906Z,2.03
2017-07-25T12:03:42.377Z,2.20
2017-07-25T12:06:09.531Z,2.40
2017-07-25T12:08:36.654Z,1.80
2017-07-25T12:11:03.076Z,2.20
2017-07-25T12:13:29.500Z,2.37
2017-07-25T12:15:55.913Z,2.63
2017-07-25T12:18:22.333Z,1.80
2017-07-25T12:21:15.824Z,2.40
2017-07-25T12:23:42.244Z,2.47
2017-07-25T12:26:08.633Z,2.30
2017-07-25T12:28:35.036Z,2.60
2017-07-25T12:31:02.464Z,2.13
2017-07-25T12:33:28.840Z,2.70
2017-07-25T12:35:55.288Z,2.23
2017-07-25T12:38:21.754Z,1.90
2017-07-25T12:40:48.221Z,2.10
2017-07-25T12:43:14.700Z,2.57
2017-07-25T12:45:41.855Z,3.10
2017-07-25T12:48:09.031Z,2.33
2017-07-25T12:50:35.464Z,2.73
2017-07-25T12:53:01.870Z,2.40
2017-07-25T12:55:28.292Z,2.37
2017-07-25T12:57:54.684Z,2.20
2017-07-25T13:00:21.138Z,4.30
2017-07-25T13:03:09.506Z,2.67
2017-07-25T13:05:36.669Z,2.60
2017-07-25T13:08:03.858Z,2.63
2017-07-25T13:10:30.268Z,2.60
2017-07-25T13:12:56.676Z,2.83
2017-07-25T13:15:23.092Z,3.50
2017-07-25T13:17:49.505Z,2.77
2017-07-25T13:20:15.876Z,3.00
2017-07-25T13:22:42.289Z,2.90
2017-07-25T13:25:08.699Z,3.30
2017-07-25T13:27:35.117Z,3.10
2017-07-25T13:30:01.549Z,2.90
2017-07-25T13:32:27.968Z,3.10
2017-07-25T13:34:54.373Z,2.87
2017-07-25T13:37:21.525Z,3.17
2017-07-25T13:39:48.702Z,3.17
2017-07-25T13:42:15.114Z,3.47
2017-07-25T13:44:41.577Z,3.10
2017-07-25T13:47:07.976Z,4.13
2017-07-25T13:49:35.103Z,3.50
2017-07-25T13:52:01.516Z,3.23
2017-07-25T13:54:27.931Z,3.43
2017-07-25T13:56:55.134Z,3.20
2017-07-25T13:59:22.281Z,3.00
2017-07-25T14:01:49.454Z,3.20
2017-07-25T14:04:15.872Z,3.37
2017-07-25T14:06:43.014Z,2.90
2017-07-25T14:09:09.417Z,2.70
2017-07-25T14:11:36.080Z,2.60
2017-07-25T14:14:02.524Z,2.70
2017-07-25T14:16:29.894Z,2.47
2017-07-25T14:18:56.320Z,3.00
2017-07-25T14:21:22.723Z,3.20
2017-07-25T14:23:49.108Z,2.73
2017-07-25T14:26:15.508Z,2.30
2017-07-25T14:28:42.659Z,3.27
2017-07-25T14:31:09.815Z,3.30
2017-07-25T14:33:36.962Z,3.50
2017-07-25T14:36:04.168Z,3.27
2017-07-25T14:38:30.602Z,3.40
2017-07-25T14:40:57.063Z,3.67
2017-07-25T14:43:23.503Z,3.23
2017-07-25T14:45:49.901Z,3.43
2017-07-25T14:48:16.376Z,2.53
2017-07-25T14:50:43.521Z,2.90
2017-07-25T14:53:09.920Z,2.33
2017-07-25T14:55:36.314Z,2.20
2017-07-25T14:58:02.733Z,2.80
2017-07-25T15:00:29.891Z,2.90
2017-07-25T15:02:57.026Z,2.40
2017-07-25T15:05:24.213Z,2.10
2017-07-25T15:07:50.642Z,2.43
2017-07-25T15:10:17.077Z,2.00
2017-07-25T15:12:43.495Z,2.00
2017-07-25T15:15:09.936Z,2.30
2017-07-25T15:17:36.402Z,2.50
2017-07-25T15:20:02.814Z,2.30
2017-07-25T15:22:29.271Z,2.30
2017-07-25T15:24:55.696Z,2.30
2017-07-25T15:27:22.132Z,2.03
2017-07-25T15:29:48.518Z,2.80
2017-07-25T15:32:15.688Z,2.80
2017-07-25T15:34:42.120Z,2.37
2017-07-25T15:37:08.527Z,2.50
2017-07-25T15:39:35.655Z,2.60
2017-07-25T15:42:02.074Z,2.20
2017-07-25T15:44:28.517Z,2.37
2017-07-25T15:46:55.676Z,2.53
2017-07-25T15:49:22.071Z,2.73
2017-07-25T15:51:48.501Z,2.40
2017-07-25T15:54:14.921Z,2.50
2017-07-25T15:56:41.490Z,2.67
2017-07-25T15:59:07.908Z,1.87
2017-07-25T16:01:34.321Z,1.90
2017-07-25T16:04:00.744Z,1.87
2017-07-25T16:06:27.910Z,2.30
2017-07-25T16:08:54.361Z,1.77
2017-07-25T16:11:20.780Z,2.53
2017-07-25T16:13:47.177Z,2.67
2017-07-25T16:16:14.328Z,2.20
2017-07-25T16:18:41.484Z,3.20
2017-07-25T16:21:08.648Z,2.10
2017-07-25T16:23:35.063Z,1.73
2017-07-25T16:26:02.220Z,2.77
2017-07-25T16:28:29.355Z,2.20
2017-07-25T16:30:56.793Z,2.83
2017-07-25T16:33:23.222Z,2.50
2017-07-25T16:35:49.640Z,2.00
2017-07-25T16:38:16.085Z,1.87
2017-07-25T16:40:42.491Z,2.00
2017-07-25T16:43:08.914Z,1.90
2017-07-25T16:45:35.336Z,1.40
2017-07-25T16:48:01.742Z,1.83
2017-07-25T16:50:28.892Z,1.80
2017-07-25T16:52:56.038Z,2.40
2017-07-25T16:55:23.222Z,1.53
2017-07-25T16:57:49.634Z,2.10
2017-07-25T17:00:16.852Z,1.83
2017-07-25T17:02:43.269Z,1.70
2017-07-25T17:05:09.715Z,2.20
2017-07-25T17:07:36.595Z,2.07
2017-07-25T17:10:03.751Z,1.77
2017-07-25T17:12:30.326Z,1.90
2017-07-25T17:14:56.716Z,1.50
2017-07-25T17:17:23.840Z,1.80
2017-07-25T17:19:51.031Z,1.60
2017-07-25T17:22:17.454Z,1.50
2017-07-25T17:24:44.624Z,1.60
2017-07-25T17:27:11.012Z,1.37
2017-07-25T17:29:37.641Z,2.20
2017-07-25T17:32:04.123Z,1.30
2017-07-25T17:34:30.562Z,1.90
2017-07-25T17:36:56.937Z,1.20
2017-07-25T17:39:23.366Z,1.30
2017-07-25T17:41:49.767Z,1.10
2017-07-25T17:44:16.152Z,1.17
2017-07-25T17:46:43.293Z,1.17
2017-07-25T17:49:09.709Z,1.30
2017-07-25T17:51:36.098Z,1.40
2017-07-25T17:54:02.512Z,1.27
2017-07-25T17:56:29.656Z,1.40
2017-07-25T17:58:56.800Z,1.53
2017-07-25T18:01:23.960Z,1.27
2017-07-25T18:03:51.168Z,1.13
2017-07-25T18:06:17.572Z,1.53
2017-07-25T18:08:43.986Z,1.30
2017-07-25T18:11:10.402Z,1.50
2017-07-25T18:13:37.605Z,1.10
2017-07-25T18:16:04.017Z,1.50
2017-07-25T18:18:30.450Z,1.30
2017-07-25T18:20:56.915Z,1.00
2017-07-25T18:23:23.332Z,1.40
2017-07-25T18:25:49.713Z,0.93
2017-07-25T18:28:16.167Z,1.10
2017-07-25T18:30:42.598Z,0.97
2017-07-25T18:33:09.069Z,1.00
2017-07-25T18:35:35.548Z,1.00
2017-07-25T18:38:03.469Z,1.40
2017-07-25T18:40:29.885Z,0.97
2017-07-25T18:42:56.283Z,1.30
2017-07-25T18:45:23.464Z,1.40
2017-07-25T18:47:49.857Z,1.10
2017-07-25T18:50:16.282Z,1.07
2017-07-25T18:52:42.694Z,1.00
2017-07-25T18:55:09.109Z,1.00
2017-07-25T18:57:35.521Z,1.10
2017-07-25T19:00:01.966Z,1.10
2017-07-25T19:02:28.381Z,1.10
2017-07-25T19:04:55.716Z,1.00
2017-07-25T19:07:22.882Z,0.90
2017-07-25T19:09:49.317Z,1.07
2017-07-25T19:12:15.714Z,1.17
2017-07-25T19:14:42.120Z,0.93
2017-07-25T19:17:08.615Z,1.10
2017-07-25T19:19:35.034Z,1.20
2017-07-25T19:22:02.223Z,1.40
2017-07-25T19:24:28.606Z,1.10
2017-07-25T19:26:55.002Z,0.90
2017-07-25T19:29:21.445Z,1.27
2017-07-25T19:31:47.880Z,1.20
2017-07-25T19:34:14.296Z,1.27
2017-07-25T19:36:40.769Z,1.10
2017-07-25T19:39:07.231Z,1.10
2017-07-25T19:41:33.695Z,1.40
2017-07-25T19:44:00.213Z,1.00
2017-07-25T19:46:26.688Z,1.20
2017-07-25T19:48:53.122Z,1.10
2017-07-25T19:51:19.567Z,1.10
2017-07-25T19:53:46.014Z,1.27
2017-07-25T19:56:13.302Z,1.23
2017-07-25T19:58:39.738Z,1.03
2017-07-25T20:01:06.172Z,1.20
2017-07-25T20:03:32.618Z,1.23
2017-07-25T20:05:59.003Z,1.10
2017-07-25T20:08:26.149Z,1.20
2017-07-25T20:10:53.330Z,1.27
2017-07-25T20:13:19.794Z,1.20
2017-07-25T20:15:46.181Z,1.20
2017-07-25T20:18:13.409Z,1.43
2017-07-25T20:20:39.827Z,1.23
2017-07-25T20:23:06.215Z,1.60
2017-07-25T20:25:32.832Z,1.20
2017-07-25T20:28:00.005Z,1.20
2017-07-25T20:30:26.451Z,1.50
2017-07-25T20:32:52.870Z,1.43
2017-07-25T20:35:19.272Z,1.40
2017-07-25T20:37:46.475Z,1.37
2017-07-25T20:40:12.887Z,1.30
2017-07-25T20:42:39.319Z,1.33
2017-07-25T20:45:05.746Z,1.10
2017-07-25T20:47:32.189Z,1.20
2017-07-25T20:49:58.617Z,1.30
2017-07-25T20:52:25.032Z,1.30
2017-07-25T20:54:51.432Z,1.20
2017-07-25T20:57:17.811Z,1.37
2017-07-25T20:59:44.267Z,1.10
2017-07-25T21:02:10.686Z,1.17
2017-07-25T21:04:37.148Z,1.20
2017-07-25T21:07:03.579Z,1.07
2017-07-25T21:09:30.016Z,1.20
2017-07-25T21:11:56.440Z,1.10
2017-07-25T21:14:22.844Z,1.03
2017-07-25T21:16:49.229Z,0.80
2017-07-25T21:19:15.675Z,1.30
2017-07-25T21:21:42.815Z,1.37
2017-07-25T21:24:09.233Z,1.30
2017-07-25T21:26:35.635Z,1.20
2017-07-25T21:29:02.053Z,1.10
2017-07-25T21:31:28.434Z,1.10
2017-07-25T21:33:54.832Z,1.20
2017-07-25T21:36:21.237Z,0.97
2017-07-25T21:38:47.790Z,1.00
2017-07-25T21:41:14.197Z,0.90
2017-07-25T21:43:41.373Z,1.20
2017-07-25T21:46:07.905Z,1.20
2017-07-25T21:48:34.377Z,1.10
2017-07-25T21:51:00.786Z,1.33
2017-07-25T21:53:27.178Z,0.93
2017-07-25T21:55:54.348Z,1.20
2017-07-25T21:58:20.715Z,1.30
2017-07-25T22:00:47.148Z,0.90
2017-07-25T22:03:25.815Z,1.10
2017-07-25T22:05:53.017Z,1.00
2017-07-25T22:08:19.436Z,1.07
2017-07-25T22:10:45.845Z,0.90
2017-07-25T22:13:12.244Z,1.00
2017-07-25T22:15:38.636Z,1.10
2017-07-25T22:18:05.049Z,1.27
2017-07-25T22:20:31.471Z,1.17
2017-07-25T22:22:57.851Z,1.00
2017-07-25T22:25:24.227Z,1.17
2017-07-25T22:27:51.378Z,0.97
2017-07-25T22:30:17.815Z,1.20
2017-07-25T22:32:45.259Z,1.03
2017-07-25T22:35:12.418Z,1.10
2017-07-25T22:37:39.565Z,1.23
2017-07-25T22:40:06.719Z,1.00
2017-07-25T22:42:33.133Z,1.20
2017-07-25T22:44:59.557Z,0.90
2017-07-25T22:47:26.409Z,1.00
2017-07-25T22:49:53.832Z,0.97
2017-07-25T22:52:20.240Z,1.10
2017-07-25T22:54:46.632Z,1.00
2017-07-25T22:57:13.040Z,1.30
2017-07-25T22:59:39.446Z,1.10
2017-07-25T23:02:05.866Z,0.97
2017-07-25T23:04:32.266Z,1.00
2017-07-25T23:06:59.398Z,1.20
2017-07-25T23:09:25.854Z,1.10
2017-07-25T23:11:53.031Z,1.07
2017-07-25T23:14:19.409Z,1.30
2017-07-25T23:16:45.829Z,1.27
2017-07-25T23:19:12.241Z,1.17
2017-07-25T23:21:38.652Z,1.63
2017-07-25T23:24:05.047Z,1.57
2017-07-25T23:26:31.457Z,1.47
2017-07-25T23:28:57.872Z,1.33
2017-07-25T23:31:24.353Z,1.33
2017-07-25T23:33:50.759Z,1.07
2017-07-25T23:36:17.192Z,1.60
2017-07-25T23:38:43.591Z,1.30
2017-07-25T23:41:09.981Z,1.30
2017-07-25T23:43:36.387Z,1.40
2017-07-25T23:46:02.782Z,1.40
2017-07-25T23:48:29.196Z,1.20
2017-07-25T23:50:56.361Z,1.53
2017-07-25T23:53:22.762Z,1.80
2017-07-25T23:55:49.975Z,1.53
2017-07-25T23:58:16.405Z,1.50
